createdAt,value
2022-10-31T00:01:13.809Z,19.50
2022-10-31T00:03:40.830Z,17.25
2022-10-31T00:06:08.091Z,22.75
2022-10-31T00:08:35.500Z,21.25
2022-10-31T00:11:02.941Z,20.75
2022-10-31T00:13:32.163Z,21.50
2022-10-31T00:15:59.164Z,21.00
2022-10-31T00:18:25.974Z,19.50
2022-10-31T00:21:00.230Z,19.00
2022-10-31T00:23:27.031Z,34.75
2022-10-31T00:25:53.818Z,32.00
2022-10-31T00:28:20.572Z,30.75
2022-10-31T00:30:48.690Z,31.50
2022-10-31T00:33:16.112Z,31.75
2022-10-31T00:35:43.070Z,24.50
2022-10-31T00:38:09.816Z,24.75
2022-10-31T00:40:36.604Z,20.75
2022-10-31T00:43:04.029Z,21.25
2022-10-31T00:45:31.907Z,23.50
2022-10-31T00:48:00.626Z,21.00
2022-10-31T00:50:27.633Z,21.00
2022-10-31T00:52:54.813Z,21.00
2022-10-31T00:55:21.561Z,18.00
2022-10-31T00:57:48.375Z,15.25
2022-10-31T01:00:16.266Z,18.25
2022-10-31T01:02:43.417Z,19.00
2022-10-31T01:05:11.582Z,21.00
2022-10-31T01:07:40.433Z,22.00
2022-10-31T01:10:11.641Z,21.25
2022-10-31T01:12:40.093Z,23.25
2022-10-31T01:15:09.089Z,28.25
2022-10-31T01:17:36.231Z,30.50
2022-10-31T01:20:05.984Z,31.00
2022-10-31T01:22:34.618Z,34.50
2022-10-31T01:25:01.614Z,33.00
2022-10-31T01:27:28.429Z,21.50
2022-10-31T01:29:55.215Z,31.25
2022-10-31T01:32:22.203Z,22.50
2022-10-31T01:34:50.206Z,21.00
2022-10-31T01:37:17.461Z,17.25
2022-10-31T01:39:45.530Z,19.50
2022-10-31T01:42:21.101Z,15.00
2022-10-31T01:45:01.014Z,17.00
2022-10-31T01:47:41.721Z,17.25
2022-10-31T01:50:23.564Z,19.50
2022-10-31T01:52:52.733Z,21.50
2022-10-31T01:55:30.046Z,20.25
2022-10-31T01:58:05.428Z,24.50
2022-10-31T02:00:32.640Z,24.50
2022-10-31T02:03:00.294Z,20.75
2022-10-31T02:05:31.208Z,18.75
2022-10-31T02:08:06.469Z,24.25
2022-10-31T02:10:37.585Z,18.50
2022-10-31T02:13:08.373Z,17.25
2022-10-31T02:15:45.983Z,19.25
2022-10-31T02:18:13.235Z,19.50
2022-10-31T02:20:54.160Z,15.50
2022-10-31T02:23:53.486Z,19.50
2022-10-31T02:26:51.717Z,13.00
2022-10-31T02:29:58.022Z,12.33
2022-10-31T02:32:39.357Z,11.75
2022-10-31T02:35:17.385Z,13.75
2022-10-31T02:37:55.605Z,18.00
2022-10-31T02:40:31.761Z,16.00
2022-10-31T02:43:33.616Z,16.25
2022-10-31T02:46:11.903Z,21.00
2022-10-31T02:48:46.177Z,23.00
2022-10-31T02:51:14.121Z,21.25
2022-10-31T02:53:40.833Z,22.00
2022-10-31T02:56:16.926Z,21.75
2022-10-31T02:58:52.849Z,20.50
2022-10-31T03:02:01.931Z,18.25
2022-10-31T03:05:02.952Z,19.00
2022-10-31T03:07:43.238Z,17.75
2022-10-31T03:10:25.978Z,20.00
2022-10-31T03:13:02.882Z,21.75
2022-10-31T03:15:35.081Z,20.75
2022-10-31T03:18:09.385Z,19.50
2022-10-31T03:20:42.577Z,16.25
2022-10-31T03:23:15.242Z,16.25
2022-10-31T03:25:44.751Z,14.25
2022-10-31T03:28:20.537Z,17.50
2022-10-31T03:30:51.585Z,17.25
2022-10-31T03:33:27.481Z,16.50
2022-10-31T03:36:03.376Z,18.50
2022-10-31T03:38:33.105Z,21.00
2022-10-31T03:41:04.442Z,20.75
2022-10-31T03:43:38.927Z,20.25
2022-10-31T03:46:07.409Z,18.75
2022-10-31T03:48:34.812Z,17.00
2022-10-31T03:51:15.773Z,18.00
2022-10-31T03:53:53.634Z,15.75
2022-10-31T03:56:34.436Z,19.00
2022-10-31T03:59:09.176Z,17.75
2022-10-31T04:01:44.228Z,19.00
2022-10-31T04:04:12.572Z,20.00
2022-10-31T04:06:46.135Z,14.75
2022-10-31T04:09:15.601Z,19.50
2022-10-31T04:11:51.029Z,18.25
2022-10-31T04:14:43.529Z,15.50
2022-10-31T04:17:15.004Z,14.50
2022-10-31T04:19:43.090Z,19.25
2022-10-31T04:22:12.039Z,19.75
2022-10-31T04:24:41.398Z,17.50
2022-10-31T04:27:12.678Z,10.00
2022-10-31T04:29:39.640Z,17.75
2022-10-31T04:32:06.373Z,15.50
2022-10-31T04:34:33.480Z,12.50
2022-10-31T04:37:00.227Z,14.50
2022-10-31T04:39:29.361Z,12.25
2022-10-31T04:42:14.596Z,13.25
2022-10-31T04:44:41.445Z,10.50
2022-10-31T04:47:08.629Z,11.75
2022-10-31T04:49:36.562Z,11.25
2022-10-31T04:52:03.469Z,10.00
2022-10-31T04:54:32.312Z,14.50
2022-10-31T04:57:17.766Z,12.00
2022-10-31T04:59:45.135Z,11.50
2022-10-31T05:02:12.085Z,12.25
2022-10-31T05:04:50.912Z,12.25
2022-10-31T05:07:18.613Z,11.25
2022-10-31T05:09:46.714Z,12.25
2022-10-31T05:12:14.483Z,13.00
2022-10-31T05:15:00.110Z,15.75
2022-10-31T05:17:46.298Z,14.25
2022-10-31T05:20:33.706Z,16.25
2022-10-31T05:23:15.993Z,15.00
2022-10-31T05:25:44.281Z,14.25
2022-10-31T05:28:12.998Z,15.75
2022-10-31T05:30:40.558Z,15.00
2022-10-31T05:33:12.531Z,17.50
2022-10-31T05:35:58.646Z,18.75
2022-10-31T05:38:32.290Z,17.00
2022-10-31T05:41:07.719Z,18.75
2022-10-31T05:43:34.957Z,19.25
2022-10-31T05:46:05.393Z,16.50
2022-10-31T05:49:07.121Z,17.00
2022-10-31T05:51:52.854Z,11.75
2022-10-31T05:54:23.083Z,18.00
2022-10-31T05:56:51.401Z,21.75
2022-10-31T05:59:18.604Z,18.00
2022-10-31T06:01:45.509Z,19.25
2022-10-31T06:04:32.486Z,7.75
2022-10-31T06:06:59.373Z,20.00
2022-10-31T06:09:26.288Z,22.50
2022-10-31T06:11:54.800Z,18.50
2022-10-31T06:14:41.504Z,24.75
2022-10-31T06:17:08.636Z,22.50
2022-10-31T06:22:22.809Z,24.25
2022-10-31T06:24:49.556Z,23.50
2022-10-31T06:27:33.914Z,23.75
2022-10-31T06:30:09.797Z,6.00
2022-10-31T06:32:37.602Z,21.50
2022-10-31T06:35:05.639Z,22.00
2022-10-31T06:37:35.616Z,22.00
2022-10-31T06:40:13.265Z,21.00
2022-10-31T06:43:02.788Z,22.25
2022-10-31T06:45:31.475Z,21.00
2022-10-31T06:48:18.253Z,23.25
2022-10-31T06:51:04.198Z,20.00
2022-10-31T06:53:32.292Z,19.75
2022-10-31T06:55:59.416Z,28.75
2022-10-31T06:58:28.145Z,30.75
2022-10-31T07:01:00.933Z,26.00
2022-10-31T07:03:27.704Z,13.25
2022-10-31T07:05:56.196Z,20.00
2022-10-31T07:08:23.131Z,21.25
2022-10-31T07:10:54.207Z,13.75
2022-10-31T07:13:22.940Z,14.50
2022-10-31T07:16:01.692Z,18.75
2022-10-31T07:18:30.144Z,15.00
2022-10-31T07:20:57.257Z,14.67
2022-10-31T07:23:24.371Z,11.67
2022-10-31T07:26:11.474Z,7.67
2022-10-31T07:28:43.899Z,15.33
2022-10-31T07:31:14.755Z,13.25
2022-10-31T07:33:41.778Z,12.50
2022-10-31T07:36:26.888Z,10.33
2022-10-31T07:38:56.846Z,15.33
2022-10-31T07:41:24.174Z,16.67
2022-10-31T07:43:51.415Z,13.67
2022-10-31T07:46:20.660Z,15.00
2022-10-31T07:49:06.169Z,12.67
2022-10-31T07:51:52.101Z,16.00
2022-10-31T07:54:38.641Z,14.50
2022-10-31T07:57:08.825Z,13.67
2022-10-31T07:59:35.701Z,12.00
2022-10-31T08:02:03.908Z,16.33
2022-10-31T08:04:30.691Z,15.67
2022-10-31T08:07:27.352Z,14.00
2022-10-31T08:10:00.318Z,13.33
2022-10-31T08:12:30.896Z,15.67
2022-10-31T08:14:58.127Z,14.50
2022-10-31T08:17:26.478Z,13.00
2022-10-31T08:19:58.055Z,8.00
2022-10-31T08:22:33.061Z,16.50
2022-10-31T08:25:01.340Z,12.67
2022-10-31T08:27:28.384Z,11.33
2022-10-31T08:29:57.427Z,6.67
2022-10-31T08:32:25.857Z,9.67
2022-10-31T08:35:28.289Z,13.33
2022-10-31T08:38:33.681Z,12.33
2022-10-31T08:41:00.999Z,12.33
2022-10-31T08:43:27.857Z,11.00
2022-10-31T08:45:55.359Z,11.33
2022-10-31T08:48:29.975Z,10.67
2022-10-31T08:50:58.563Z,10.00
2022-10-31T08:53:26.918Z,14.00
2022-10-31T08:56:08.922Z,12.00
2022-10-31T08:58:40.214Z,10.00
2022-10-31T09:01:09.079Z,9.33
2022-10-31T09:03:37.684Z,17.50
2022-10-31T09:06:06.459Z,16.33
2022-10-31T09:08:34.023Z,15.33
2022-10-31T09:11:03.125Z,12.67
2022-10-31T09:13:48.847Z,12.00
2022-10-31T09:16:34.075Z,12.00
2022-10-31T09:19:06.179Z,12.67
2022-10-31T09:21:35.868Z,13.33
2022-10-31T09:24:02.762Z,13.50
2022-10-31T09:26:29.541Z,13.00
2022-10-31T09:28:59.016Z,10.50
2022-10-31T09:31:26.167Z,11.00
2022-10-31T09:33:54.300Z,14.75
2022-10-31T09:36:38.753Z,8.00
2022-10-31T09:39:13.076Z,13.67
2022-10-31T09:42:03.785Z,14.00
2022-10-31T09:44:46.314Z,12.50
2022-10-31T09:47:46.109Z,10.00
2022-10-31T09:50:42.163Z,13.00
2022-10-31T09:53:39.599Z,17.33
2022-10-31T09:56:12.201Z,16.75
2022-10-31T09:58:45.661Z,14.75
2022-10-31T10:01:34.662Z,14.50
2022-10-31T10:04:19.874Z,11.25
2022-10-31T10:07:25.833Z,15.25
2022-10-31T10:10:28.223Z,15.00
2022-10-31T10:13:30.177Z,18.00
2022-10-31T10:16:16.912Z,14.25
2022-10-31T10:19:03.632Z,16.75
2022-10-31T10:21:43.860Z,17.00
2022-10-31T10:24:29.168Z,16.50
2022-10-31T10:27:20.719Z,14.50
2022-10-31T10:29:59.443Z,14.25
2022-10-31T10:32:30.899Z,14.00
2022-10-31T10:35:18.910Z,15.50
2022-10-31T10:37:51.654Z,14.50
2022-10-31T10:40:24.687Z,14.75
2022-10-31T10:43:12.711Z,14.50
2022-10-31T10:45:41.253Z,13.75
2022-10-31T10:48:17.015Z,13.75
2022-10-31T10:50:50.393Z,14.25
2022-10-31T10:53:40.336Z,14.00
2022-10-31T10:56:18.496Z,15.25
2022-10-31T10:58:46.678Z,14.25
2022-10-31T11:03:42.823Z,12.50
2022-10-31T11:06:19.661Z,15.75
2022-10-31T11:08:46.579Z,11.75
2022-10-31T11:11:26.534Z,12.50
2022-10-31T11:14:03.931Z,14.25
2022-10-31T11:16:40.638Z,13.75
2022-10-31T11:19:16.855Z,14.25
2022-10-31T11:21:44.821Z,14.25
2022-10-31T11:24:21.734Z,12.00
2022-10-31T11:26:51.791Z,14.75
2022-10-31T11:29:24.355Z,14.25
2022-10-31T11:31:56.069Z,8.00
2022-10-31T11:34:31.683Z,16.25
2022-10-31T11:37:13.563Z,17.25
2022-10-31T11:39:44.913Z,16.00
2022-10-31T11:42:14.319Z,13.50
2022-10-31T11:44:44.908Z,19.25
2022-10-31T11:47:17.483Z,17.75
2022-10-31T11:49:48.852Z,16.75
2022-10-31T11:52:26.028Z,19.50
2022-10-31T11:54:58.069Z,20.50
2022-10-31T11:57:28.844Z,21.00
2022-10-31T11:59:59.452Z,23.75
2022-10-31T12:02:27.704Z,20.25
2022-10-31T12:05:08.656Z,22.50
2022-10-31T12:07:36.112Z,20.25
2022-10-31T12:10:12.628Z,20.00
2022-10-31T12:12:59.152Z,21.50
2022-10-31T12:15:34.864Z,23.25
2022-10-31T12:18:38.332Z,23.00
2022-10-31T12:21:24.162Z,20.25
2022-10-31T12:24:10.253Z,19.75
2022-10-31T12:26:52.740Z,18.75
2022-10-31T12:29:41.482Z,21.25
2022-10-31T12:32:37.892Z,16.00
2022-10-31T12:35:28.313Z,21.75
2022-10-31T12:38:19.009Z,21.25
2022-10-31T12:41:12.579Z,20.00
2022-10-31T12:43:53.185Z,14.00
2022-10-31T12:46:43.707Z,22.00
2022-10-31T12:49:37.789Z,18.75
2022-10-31T12:52:33.699Z,22.25
2022-10-31T12:55:27.256Z,19.50
2022-10-31T12:58:02.447Z,17.75
2022-10-31T13:00:36.701Z,21.75
2022-10-31T13:03:21.467Z,16.50
2022-10-31T13:05:58.946Z,17.75
2022-10-31T13:08:38.258Z,19.75
2022-10-31T13:11:14.554Z,19.25
2022-10-31T13:13:51.546Z,17.75
2022-10-31T13:16:25.183Z,21.50
2022-10-31T13:18:58.138Z,19.00
2022-10-31T13:21:37.219Z,19.50
2022-10-31T13:24:17.305Z,21.25
2022-10-31T13:26:49.945Z,21.00
2022-10-31T13:29:29.839Z,22.25
2022-10-31T13:32:01.062Z,21.00
2022-10-31T13:34:33.925Z,19.25
2022-10-31T13:37:16.166Z,20.50
2022-10-31T13:40:04.162Z,21.50
2022-10-31T13:42:49.936Z,25.50
2022-10-31T13:45:20.379Z,24.25
2022-10-31T13:47:59.540Z,25.50
2022-10-31T13:50:29.990Z,29.00
2022-10-31T13:53:21.034Z,25.00
2022-10-31T13:55:51.490Z,25.75
2022-10-31T13:58:26.728Z,28.25
2022-10-31T14:01:17.609Z,25.50
2022-10-31T14:04:16.767Z,19.25
2022-10-31T14:06:54.290Z,25.25
2022-10-31T14:09:29.897Z,23.75
2022-10-31T14:12:00.794Z,23.50
2022-10-31T14:14:40.836Z,20.75
2022-10-31T14:17:21.316Z,21.25
2022-10-31T14:20:22.561Z,20.00
2022-10-31T14:22:49.654Z,23.00
2022-10-31T14:25:30.613Z,21.00
2022-10-31T14:27:59.708Z,25.00
2022-10-31T14:30:29.648Z,18.25
2022-10-31T14:33:00.818Z,24.00
2022-10-31T14:35:47.957Z,24.50
2022-10-31T14:38:43.405Z,23.50
2022-10-31T14:41:35.767Z,26.75
2022-10-31T14:44:42.997Z,27.50
2022-10-31T14:47:24.944Z,24.25
2022-10-31T14:50:20.018Z,24.00
2022-10-31T14:52:52.582Z,22.75
2022-10-31T14:55:21.960Z,25.25
2022-10-31T14:57:57.013Z,24.00
2022-10-31T15:00:25.455Z,23.50
2022-10-31T15:03:10.623Z,23.25
2022-10-31T15:05:48.250Z,22.50
2022-10-31T15:08:33.515Z,18.25
2022-10-31T15:11:09.732Z,22.25
2022-10-31T15:13:44.402Z,19.75
2022-10-31T15:16:15.056Z,17.25
2022-10-31T15:18:50.955Z,21.50
2022-10-31T15:21:20.565Z,22.00
2022-10-31T15:23:48.683Z,18.50
2022-10-31T15:26:20.188Z,19.00
2022-10-31T15:28:59.334Z,19.00
2022-10-31T15:31:26.126Z,20.75
2022-10-31T15:33:57.449Z,24.75
2022-10-31T15:36:29.127Z,25.50
2022-10-31T15:38:58.588Z,27.00
2022-10-31T15:41:33.342Z,22.00
2022-10-31T15:44:13.317Z,21.75
2022-10-31T15:46:40.684Z,21.25
2022-10-31T15:49:27.429Z,23.00
2022-10-31T15:51:54.864Z,23.25
2022-10-31T15:54:22.510Z,23.50
2022-10-31T15:56:49.311Z,20.75
2022-10-31T15:59:27.467Z,16.00
2022-10-31T16:02:02.972Z,22.75
2022-10-31T16:04:30.759Z,22.00
2022-10-31T16:07:01.654Z,27.67
2022-10-31T16:09:29.117Z,21.75
2022-10-31T16:11:58.531Z,21.00
2022-10-31T16:14:31.723Z,21.00
2022-10-31T16:17:02.281Z,25.67
2022-10-31T16:19:34.786Z,24.33
2022-10-31T16:22:10.249Z,26.75
2022-10-31T16:24:48.991Z,20.25
2022-10-31T16:27:21.784Z,21.00
2022-10-31T16:29:50.346Z,24.00
2022-10-31T16:32:36.795Z,25.00
2022-10-31T16:35:26.438Z,26.50
2022-10-31T16:37:54.435Z,22.33
2022-10-31T16:40:21.774Z,23.00
2022-10-31T16:42:48.919Z,21.67
2022-10-31T16:45:21.257Z,25.25
2022-10-31T16:47:49.716Z,27.00
2022-10-31T16:50:21.514Z,27.00
2022-10-31T16:55:43.568Z,28.25
2022-10-31T16:58:18.400Z,22.50
2022-10-31T17:00:46.869Z,26.75
2022-10-31T17:03:13.693Z,26.50
2022-10-31T17:05:40.816Z,26.50
2022-10-31T17:08:07.800Z,22.33
2022-10-31T17:10:35.693Z,24.50
2022-10-31T17:13:08.374Z,23.00
2022-10-31T17:15:42.635Z,41.75
2022-10-31T17:18:13.541Z,48.25
2022-10-31T17:20:41.750Z,45.00
2022-10-31T17:23:10.854Z,43.25
2022-10-31T17:25:38.324Z,37.00
2022-10-31T17:28:05.936Z,34.50
2022-10-31T17:30:34.694Z,38.50
2022-10-31T17:33:01.754Z,39.00
2022-10-31T17:35:30.249Z,3.00
2022-10-31T17:37:56.966Z,44.25
2022-10-31T17:40:24.667Z,44.75
2022-10-31T17:42:53.125Z,39.75
2022-10-31T17:45:21.910Z,41.00
2022-10-31T17:47:50.888Z,37.75
2022-10-31T17:50:20.196Z,38.25
2022-10-31T17:52:48.908Z,35.00
2022-10-31T17:55:16.684Z,33.50
2022-10-31T17:57:44.412Z,35.00
2022-10-31T18:00:14.921Z,30.50
2022-10-31T18:02:42.346Z,32.25
2022-10-31T18:05:10.154Z,35.25
2022-10-31T18:07:36.892Z,30.25
2022-10-31T18:10:06.633Z,34.75
2022-10-31T18:12:36.469Z,32.25
2022-10-31T18:15:04.719Z,33.00
2022-10-31T18:17:31.434Z,33.75
2022-10-31T18:19:58.199Z,33.75
2022-10-31T18:22:25.209Z,30.50
2022-10-31T18:24:51.970Z,32.50
2022-10-31T18:27:20.003Z,34.00
2022-10-31T18:29:46.889Z,35.00
2022-10-31T18:32:14.061Z,35.25
2022-10-31T18:34:40.722Z,30.25
2022-10-31T18:37:07.539Z,46.25
2022-10-31T18:39:34.287Z,39.00
2022-10-31T18:42:01.280Z,33.00
2022-10-31T18:44:29.440Z,34.75
2022-10-31T18:46:56.548Z,33.75
2022-10-31T18:49:23.275Z,31.50
2022-10-31T18:51:50.990Z,35.75
2022-10-31T18:54:18.192Z,40.00
2022-10-31T18:56:45.398Z,44.75
2022-10-31T18:59:12.718Z,35.50
2022-10-31T19:01:40.886Z,37.25
2022-10-31T19:04:07.832Z,41.50
2022-10-31T19:06:34.887Z,42.00
2022-10-31T19:09:06.449Z,39.75
2022-10-31T19:11:34.887Z,43.75
2022-10-31T19:14:02.307Z,44.00
2022-10-31T19:16:30.055Z,43.75
2022-10-31T19:18:58.688Z,42.25
2022-10-31T19:21:26.223Z,36.75
2022-10-31T19:23:54.641Z,41.50
2022-10-31T19:26:22.353Z,36.75
2022-10-31T19:28:49.051Z,39.00
2022-10-31T19:31:16.073Z,36.25
2022-10-31T19:33:43.251Z,33.25
2022-10-31T19:36:14.905Z,32.25
2022-10-31T19:38:44.811Z,32.50
2022-10-31T19:41:17.609Z,32.00
2022-10-31T19:43:45.282Z,28.75
2022-10-31T19:46:22.272Z,32.00
2022-10-31T19:48:55.082Z,33.50
2022-10-31T19:51:23.229Z,29.25
2022-10-31T19:53:49.982Z,28.00
2022-10-31T19:56:19.346Z,30.00
2022-10-31T19:58:46.663Z,34.50
2022-10-31T20:01:16.548Z,35.50
2022-10-31T20:03:45.525Z,28.75
2022-10-31T20:06:21.025Z,33.00
2022-10-31T20:08:49.471Z,31.25
2022-10-31T20:11:16.856Z,32.75
2022-10-31T20:13:43.998Z,31.00
2022-10-31T20:16:13.908Z,30.25
2022-10-31T20:18:42.244Z,36.25
2022-10-31T20:21:13.122Z,35.00
2022-10-31T20:23:41.121Z,35.50
2022-10-31T20:26:14.193Z,34.75
2022-10-31T20:28:43.212Z,42.50
2022-10-31T20:31:13.640Z,41.50
2022-10-31T20:33:40.909Z,38.25
2022-10-31T20:36:09.000Z,37.50
2022-10-31T20:38:38.471Z,34.25
2022-10-31T20:41:08.254Z,32.25
2022-10-31T20:43:37.778Z,34.50
2022-10-31T20:46:07.569Z,33.25
2022-10-31T20:48:34.755Z,36.00
2022-10-31T20:51:05.339Z,39.00
2022-10-31T20:53:33.110Z,39.00
2022-10-31T20:56:06.763Z,41.00
2022-10-31T20:58:36.509Z,38.25
2022-10-31T21:01:04.145Z,38.00
2022-10-31T21:03:31.012Z,35.50
2022-10-31T21:06:00.348Z,34.00
2022-10-31T21:08:30.810Z,32.75
2022-10-31T21:10:58.437Z,33.00
2022-10-31T21:13:25.970Z,35.75
2022-10-31T21:16:01.176Z,37.75
2022-10-31T21:18:29.145Z,34.75
2022-10-31T21:20:56.018Z,35.25
2022-10-31T21:23:23.880Z,37.00
2022-10-31T21:25:50.667Z,34.00
2022-10-31T21:28:17.514Z,36.75
2022-10-31T21:30:50.154Z,34.50
2022-10-31T21:33:18.483Z,32.75
2022-10-31T21:35:50.143Z,35.75
2022-10-31T21:38:17.006Z,33.50
2022-10-31T21:40:44.616Z,34.75
2022-10-31T21:43:11.524Z,36.50
2022-10-31T21:45:38.232Z,36.75
2022-10-31T21:48:05.829Z,33.25
2022-10-31T21:50:34.332Z,33.25
2022-10-31T21:53:01.296Z,33.25
2022-10-31T21:55:28.211Z,35.00
2022-10-31T21:57:55.043Z,33.25
2022-10-31T22:00:22.045Z,20.00
2022-10-31T22:02:48.765Z,31.75
2022-10-31T22:05:15.982Z,32.75
2022-10-31T22:07:44.271Z,32.00
2022-10-31T22:10:11.032Z,32.25
2022-10-31T22:12:37.712Z,33.75
2022-10-31T22:15:05.252Z,28.75
2022-10-31T22:17:31.947Z,29.25
2022-10-31T22:19:58.681Z,33.00
2022-10-31T22:22:25.600Z,33.75
2022-10-31T22:24:53.608Z,40.75
2022-10-31T22:27:20.409Z,37.25
2022-10-31T22:29:47.093Z,41.25
2022-10-31T22:32:13.986Z,42.50
2022-10-31T22:34:40.696Z,41.25
2022-10-31T22:37:07.676Z,44.25
2022-10-31T22:39:34.404Z,41.25
2022-10-31T22:42:02.498Z,42.50
2022-10-31T22:44:29.201Z,43.50
2022-10-31T22:46:55.956Z,45.00
2022-10-31T22:49:22.850Z,44.00
2022-10-31T22:51:50.947Z,44.00
2022-10-31T22:54:18.555Z,44.50
2022-10-31T22:56:45.761Z,41.50
2022-10-31T22:59:16.597Z,40.75
2022-10-31T23:01:44.356Z,42.00
2022-10-31T23:04:12.531Z,42.75
2022-10-31T23:06:39.861Z,36.00
2022-10-31T23:09:07.945Z,43.00
2022-10-31T23:11:38.393Z,40.50
2022-10-31T23:14:09.382Z,42.00
2022-10-31T23:16:43.441Z,41.25
2022-10-31T23:19:15.702Z,41.75
2022-10-31T23:21:45.309Z,41.25
2022-10-31T23:24:13.030Z,44.50
2022-10-31T23:26:40.049Z,52.00
2022-10-31T23:29:07.060Z,56.25
2022-10-31T23:31:33.872Z,48.75
2022-10-31T23:34:02.137Z,36.50
2022-10-31T23:36:28.859Z,32.75
2022-10-31T23:38:55.802Z,34.25
2022-10-31T23:41:22.625Z,32.50
2022-10-31T23:43:49.289Z,26.75
2022-10-31T23:46:16.038Z,28.50
2022-10-31T23:48:42.946Z,30.00
2022-10-31T23:51:11.039Z,30.25
2022-10-31T23:53:37.731Z,32.00
2022-10-31T23:56:05.348Z,31.50
2022-10-31T23:58:32.033Z,29.00
